• Join FlightAware (Why Join?)
  • Login
  • US Flag 
02:29PM EDT


 

Airport Tracker/Info


-or-


 

Live Flight TrackerFlight Track Log ✈ TAM3617 ✈ 01-May-2013 ✈ SBGL / GIG - SBKP / VCP

Flight Track Log - Related Links

Times and Time Zones

All times are in EDT time to prevent confusion due to time zone crossing. See the TAM3617 flight status page for this flight to view local times or setup timezone preferences in your user account.

Time Position Orientation Groundspeed Altitude Reporting Facility
EDT Latitude Longitude Course Direction KTS MPH feet Rate Location/Type
10:14PM -22.8709 -44.2736 266° West  Level Estimated
10:15PM -22.8754 -44.3529 266° West  Level Estimated
10:16PM -22.8799 -44.4322 266° West  Level Estimated
10:17PM -22.8843 -44.5115 267° West  Level Estimated
10:18PM -22.8887 -44.5907 267° West  Level Estimated
10:19PM -22.8930 -44.6700 267° West  Level Estimated
10:20PM -22.8973 -44.7493 267° West  Level Estimated
10:21PM -22.9016 -44.8286 267° West  Level Estimated
10:22PM -22.9058 -44.9079 267° West  Level Estimated
10:23PM -22.9100 -44.9872 267° West  Level Estimated
10:24PM -22.9141 -45.0665 267° West  Level Estimated
10:25PM -22.9182 -45.1459 267° West  Level Estimated
10:26PM -22.9223 -45.2252 267° West  Level Estimated
10:27PM -22.9263 -45.3045 267° West  Level Estimated
10:28PM -22.9303 -45.3838 267° West  Level Estimated
10:29PM -22.9342 -45.4632 267° West  Level Estimated
10:30PM -22.9382 -45.5425 267° West  Level Estimated
10:31PM -22.9420 -45.6219 267° West  Level Estimated
10:32PM -22.9459 -45.7012 267° West  Level Estimated
10:33PM -22.9496 -45.7806 267° West  Level Estimated
10:34PM -22.9534 -45.8599 267° West  Level Estimated
10:35PM -22.9571 -45.9393 267° West  Level Estimated
10:36PM -22.9608 -46.0187 267° West  Level Estimated
10:37PM -22.9644 -46.0980 267° West  Level Estimated
10:38PM -22.9680 -46.1774 267° West  Level Estimated
10:39PM -22.9715 -46.2568 267° West  Level Estimated
10:40PM -22.9751 -46.3362 267° West  Level Estimated
10:41PM -22.9785 -46.4156 267° West  Level Estimated
10:42PM -22.9820 -46.4950 267° West  Level Estimated
10:43PM -22.9853 -46.5744 267° West  Level Estimated
10:44PM -22.9887 -46.6538 267° West  Level Estimated
10:45PM -22.9920 -46.7332 267° West  Level Estimated
10:46PM -22.9953 -46.8126 267° West  Level Estimated
10:47PM -22.9985 -46.8920 267° West  Level Estimated
10:48PM -23.0017 -46.9714 267° West  Level Estimated
10:49PM -23.0049 -47.0508 268° West  Level Estimated
10:50PM -23.0080 -47.1303 268° West  Level Estimated
10:51PM -23.0082 -47.1347 268° West  Level Estimated
10:52PM -23.0082 -47.1347 335° Northwest  Level Estimated
10:53PM -23.0082 -47.1347 335° Northwest  Level Estimated
10:54PM -23.0082 -47.1347 335° Northwest  Level Estimated
10:55PM -23.0082 -47.1347 335° Northwest  Level Estimated
10:56PM -23.0082 -47.1347 335° Northwest  Level Estimated
10:57PM -23.0082 -47.1347 335° Northwest  Level Estimated
10:58PM -23.0082 -47.1347 335° Northwest  Level Estimated
10:59PM -23.0082 -47.1347 335° Northwest  Level Estimated
11:00PM -23.0082 -47.1347 335° Northwest  Level Estimated
11:01PM -23.0082 -47.1347 335° Northwest  Level Estimated
11:02PM -23.0082 -47.1347 335° Northwest  Level Estimated
11:03PM -23.0082 -47.1347 335° Northwest  Level Estimated
11:04PM -23.0082 -47.1347 335° Northwest  Level Estimated
11:05PM -23.0082 -47.1347 335° Northwest  Level Estimated
11:06PM -23.0082 -47.1347 335° Northwest  Level Estimated